sensor_id;sensor_type;location;lat;lon;timestamp;P1;durP1;ratioP1;P2;durP2;ratioP2
48791;SDS011;34587;48.816;9.420;2023-08-07T04:16:40;4.70;;;1.58;;
48791;SDS011;34587;48.816;9.420;2023-08-07T04:19:06;3.35;;;1.35;;
48791;SDS011;34587;48.816;9.420;2023-08-07T04:21:32;2.67;;;1.20;;
48791;SDS011;34587;48.816;9.420;2023-08-07T04:23:57;4.05;;;1.30;;
48791;SDS011;34587;48.816;9.420;2023-08-07T04:26:25;2.00;;;0.90;;
48791;SDS011;34587;48.816;9.420;2023-08-07T04:28:50;1.27;;;0.95;;
48791;SDS011;34587;48.816;9.420;2023-08-07T04:31:16;2.38;;;1.00;;
48791;SDS011;34587;48.816;9.420;2023-08-07T04:33:41;2.42;;;1.10;;
48791;SDS011;34587;48.816;9.420;2023-08-07T04:36:06;6.22;;;1.10;;
48791;SDS011;34587;48.816;9.420;2023-08-07T04:38:31;5.00;;;2.20;;
48791;SDS011;34587;48.816;9.420;2023-08-07T04:40:57;4.63;;;1.17;;
48791;SDS011;34587;48.816;9.420;2023-08-07T04:43:22;1.63;;;1.00;;
48791;SDS011;34587;48.816;9.420;2023-08-07T04:45:48;4.05;;;1.40;;
48791;SDS011;34587;48.816;9.420;2023-08-07T04:48:14;6.45;;;1.85;;
48791;SDS011;34587;48.816;9.420;2023-08-07T04:50:39;2.70;;;1.05;;
48791;SDS011;34587;48.816;9.420;2023-08-07T04:53:05;4.50;;;1.48;;
48791;SDS011;34587;48.816;9.420;2023-08-07T04:55:31;1.05;;;0.90;;
48791;SDS011;34587;48.816;9.420;2023-08-07T04:57:56;7.40;;;1.10;;
48791;SDS011;34587;48.816;9.420;2023-08-07T05:00:22;3.58;;;1.40;;
48791;SDS011;34587;48.816;9.420;2023-08-07T05:02:48;3.20;;;1.17;;
48791;SDS011;34587;48.816;9.420;2023-08-07T05:05:14;1.23;;;0.98;;
48791;SDS011;34587;48.816;9.420;2023-08-07T05:07:40;2.35;;;1.38;;
48791;SDS011;34587;48.816;9.420;2023-08-07T05:10:06;5.93;;;1.52;;
48791;SDS011;34587;48.816;9.420;2023-08-07T05:12:31;1.13;;;1.00;;
48791;SDS011;34587;48.816;9.420;2023-08-07T05:14:57;3.17;;;1.30;;
48791;SDS011;34587;48.816;9.420;2023-08-07T05:17:22;2.08;;;1.27;;
48791;SDS011;34587;48.816;9.420;2023-08-07T05:19:47;2.00;;;1.35;;
48791;SDS011;34587;48.816;9.420;2023-08-07T05:22:13;2.25;;;1.30;;
48791;SDS011;34587;48.816;9.420;2023-08-07T05:24:38;2.80;;;1.10;;
48791;SDS011;34587;48.816;9.420;2023-08-07T05:27:05;2.42;;;1.50;;
48791;SDS011;34587;48.816;9.420;2023-08-07T05:29:33;5.15;;;1.55;;
48791;SDS011;34587;48.816;9.420;2023-08-07T05:31:58;4.38;;;1.67;;
48791;SDS011;34587;48.816;9.420;2023-08-07T05:34:23;4.13;;;1.52;;
48791;SDS011;34587;48.816;9.420;2023-08-07T05:36:48;2.28;;;1.15;;
48791;SDS011;34587;48.816;9.420;2023-08-07T05:39:14;4.68;;;1.27;;
48791;SDS011;34587;48.816;9.420;2023-08-07T05:41:39;5.85;;;1.23;;
48791;SDS011;34587;48.816;9.420;2023-08-07T05:44:04;0.95;;;0.93;;
48791;SDS011;34587;48.816;9.420;2023-08-07T05:46:30;1.40;;;1.27;;
48791;SDS011;34587;48.816;9.420;2023-08-07T05:48:55;1.40;;;1.10;;
48791;SDS011;34587;48.816;9.420;2023-08-07T05:51:21;5.65;;;1.10;;
48791;SDS011;34587;48.816;9.420;2023-08-07T05:53:46;5.13;;;1.20;;
48791;SDS011;34587;48.816;9.420;2023-08-07T05:56:11;3.67;;;1.40;;
48791;SDS011;34587;48.816;9.420;2023-08-07T05:58:37;5.22;;;1.30;;
48791;SDS011;34587;48.816;9.420;2023-08-07T06:01:02;3.85;;;1.30;;
48791;SDS011;34587;48.816;9.420;2023-08-07T06:03:27;1.90;;;0.98;;
48791;SDS011;34587;48.816;9.420;2023-08-07T06:05:53;7.78;;;1.15;;
48791;SDS011;34587;48.816;9.420;2023-08-07T06:08:18;5.10;;;1.20;;
48791;SDS011;34587;48.816;9.420;2023-08-07T06:10:43;3.70;;;1.30;;
48791;SDS011;34587;48.816;9.420;2023-08-07T06:13:09;4.90;;;1.58;;
48791;SDS011;34587;48.816;9.420;2023-08-07T06:15:34;2.65;;;1.25;;
48791;SDS011;34587;48.816;9.420;2023-08-07T06:17:59;3.45;;;1.35;;
48791;SDS011;34587;48.816;9.420;2023-08-07T06:20:24;2.17;;;1.15;;
48791;SDS011;34587;48.816;9.420;2023-08-07T06:22:50;3.78;;;0.90;;
48791;SDS011;34587;48.816;9.420;2023-08-07T06:25:15;2.17;;;1.10;;
48791;SDS011;34587;48.816;9.420;2023-08-07T06:27:41;2.80;;;1.35;;
48791;SDS011;34587;48.816;9.420;2023-08-07T06:30:06;3.38;;;1.30;;
48791;SDS011;34587;48.816;9.420;2023-08-07T06:32:32;2.50;;;1.05;;
48791;SDS011;34587;48.816;9.420;2023-08-07T06:34:57;5.75;;;1.48;;
48791;SDS011;34587;48.816;9.420;2023-08-07T06:37:23;7.05;;;1.40;;
48791;SDS011;34587;48.816;9.420;2023-08-07T06:39:48;1.27;;;0.88;;
48791;SDS011;34587;48.816;9.420;2023-08-07T06:42:13;4.22;;;1.20;;
48791;SDS011;34587;48.816;9.420;2023-08-07T06:44:39;4.60;;;1.20;;
48791;SDS011;34587;48.816;9.420;2023-08-07T06:47:04;1.10;;;0.93;;
48791;SDS011;34587;48.816;9.420;2023-08-07T06:49:29;3.45;;;1.15;;
48791;SDS011;34587;48.816;9.420;2023-08-07T06:51:56;2.40;;;1.00;;
48791;SDS011;34587;48.816;9.420;2023-08-07T06:54:22;2.20;;;0.82;;
48791;SDS011;34587;48.816;9.420;2023-08-07T06:56:47;1.85;;;1.10;;
48791;SDS011;34587;48.816;9.420;2023-08-07T06:59:13;4.03;;;1.25;;
48791;SDS011;34587;48.816;9.420;2023-08-07T07:01:38;5.03;;;0.82;;
48791;SDS011;34587;48.816;9.420;2023-08-07T07:04:03;1.85;;;1.10;;
48791;SDS011;34587;48.816;9.420;2023-08-07T07:06:29;7.63;;;1.35;;
48791;SDS011;34587;48.816;9.420;2023-08-07T07:08:54;3.78;;;0.80;;
48791;SDS011;34587;48.816;9.420;2023-08-07T07:11:20;1.65;;;0.77;;
48791;SDS011;34587;48.816;9.420;2023-08-07T07:13:47;1.10;;;0.93;;
48791;SDS011;34587;48.816;9.420;2023-08-07T07:16:12;1.75;;;0.80;;
48791;SDS011;34587;48.816;9.420;2023-08-07T07:18:38;4.32;;;1.02;;
48791;SDS011;34587;48.816;9.420;2023-08-07T07:21:04;3.33;;;1.05;;
48791;SDS011;34587;48.816;9.420;2023-08-07T07:23:29;5.07;;;0.82;;
48791;SDS011;34587;48.816;9.420;2023-08-07T07:25:55;0.60;;;0.60;;
48791;SDS011;34587;48.816;9.420;2023-08-07T07:28:20;5.70;;;1.13;;
48791;SDS011;34587;48.816;9.420;2023-08-07T07:30:46;4.78;;;0.70;;
48791;SDS011;34587;48.816;9.420;2023-08-07T07:33:11;2.25;;;0.90;;
48791;SDS011;34587;48.816;9.420;2023-08-07T07:35:38;0.75;;;0.70;;
48791;SDS011;34587;48.816;9.420;2023-08-07T07:38:04;2.60;;;0.80;;
48791;SDS011;34587;48.816;9.420;2023-08-07T07:40:30;0.98;;;0.82;;
48791;SDS011;34587;48.816;9.420;2023-08-07T07:42:55;1.08;;;0.80;;
48791;SDS011;34587;48.816;9.420;2023-08-07T07:45:21;0.70;;;0.70;;
48791;SDS011;34587;48.816;9.420;2023-08-07T07:47:46;0.95;;;0.75;;
48791;SDS011;34587;48.816;9.420;2023-08-07T07:50:11;0.77;;;0.77;;
48791;SDS011;34587;48.816;9.420;2023-08-07T07:52:38;0.95;;;0.85;;
48791;SDS011;34587;48.816;9.420;2023-08-07T07:55:03;3.10;;;1.10;;
48791;SDS011;34587;48.816;9.420;2023-08-07T07:57:29;2.47;;;1.00;;
48791;SDS011;34587;48.816;9.420;2023-08-07T07:59:54;3.22;;;0.98;;
48791;SDS011;34587;48.816;9.420;2023-08-07T08:02:20;3.58;;;1.00;;
48791;SDS011;34587;48.816;9.420;2023-08-07T08:04:46;1.45;;;0.93;;
48791;SDS011;34587;48.816;9.420;2023-08-07T08:07:13;2.03;;;1.40;;
48791;SDS011;34587;48.816;9.420;2023-08-07T08:09:38;1.48;;;0.82;;
48791;SDS011;34587;48.816;9.420;2023-08-07T08:12:03;3.35;;;1.33;;
48791;SDS011;34587;48.816;9.420;2023-08-07T08:14:29;4.05;;;1.00;;
48791;SDS011;34587;48.816;9.420;2023-08-07T08:16:55;5.28;;;1.10;;
48791;SDS011;34587;48.816;9.420;2023-08-07T08:19:20;1.15;;;0.88;;
48791;SDS011;34587;48.816;9.420;2023-08-07T08:21:45;1.35;;;1.05;;
48791;SDS011;34587;48.816;9.420;2023-08-07T08:24:10;1.38;;;1.00;;
48791;SDS011;34587;48.816;9.420;2023-08-07T08:26:36;6.50;;;1.10;;
48791;SDS011;34587;48.816;9.420;2023-08-07T08:29:01;1.67;;;0.70;;
48791;SDS011;34587;48.816;9.420;2023-08-07T08:31:26;2.33;;;0.80;;
48791;SDS011;34587;48.816;9.420;2023-08-07T08:33:52;1.17;;;0.77;;
48791;SDS011;34587;48.816;9.420;2023-08-07T08:36:17;3.42;;;0.80;;
48791;SDS011;34587;48.816;9.420;2023-08-07T08:38:43;2.00;;;0.82;;
48791;SDS011;34587;48.816;9.420;2023-08-07T08:41:10;1.73;;;1.10;;
48791;SDS011;34587;48.816;9.420;2023-08-07T08:43:35;3.28;;;1.02;;
48791;SDS011;34587;48.816;9.420;2023-08-07T08:46:05;2.90;;;0.90;;
48791;SDS011;34587;48.816;9.420;2023-08-07T08:48:31;5.72;;;1.00;;
48791;SDS011;34587;48.816;9.420;2023-08-07T08:51:01;0.80;;;0.80;;
48791;SDS011;34587;48.816;9.420;2023-08-07T08:53:28;1.02;;;0.70;;
48791;SDS011;34587;48.816;9.420;2023-08-07T08:55:54;1.35;;;0.70;;
48791;SDS011;34587;48.816;9.420;2023-08-07T08:58:19;2.63;;;1.13;;
48791;SDS011;34587;48.816;9.420;2023-08-07T09:00:46;5.22;;;0.88;;
48791;SDS011;34587;48.816;9.420;2023-08-07T09:03:12;2.22;;;0.85;;
48791;SDS011;34587;48.816;9.420;2023-08-07T09:05:38;0.82;;;0.70;;
48791;SDS011;34587;48.816;9.420;2023-08-07T09:08:04;6.50;;;0.88;;
48791;SDS011;34587;48.816;9.420;2023-08-07T09:10:30;2.70;;;0.82;;
48791;SDS011;34587;48.816;9.420;2023-08-07T09:12:59;0.75;;;0.75;;
48791;SDS011;34587;48.816;9.420;2023-08-07T09:15:29;1.95;;;0.75;;
48791;SDS011;34587;48.816;9.420;2023-08-07T09:17:54;2.90;;;0.70;;
48791;SDS011;34587;48.816;9.420;2023-08-07T09:20:20;1.75;;;0.50;;
48791;SDS011;34587;48.816;9.420;2023-08-07T09:22:46;0.50;;;0.50;;
48791;SDS011;34587;48.816;9.420;2023-08-07T09:25:11;1.80;;;0.70;;
48791;SDS011;34587;48.816;9.420;2023-08-07T09:27:37;0.77;;;0.75;;
48791;SDS011;34587;48.816;9.420;2023-08-07T09:30:07;1.35;;;0.80;;
48791;SDS011;34587;48.816;9.420;2023-08-07T09:32:34;1.73;;;0.98;;
48791;SDS011;34587;48.816;9.420;2023-08-07T09:35:01;3.10;;;0.80;;
48791;SDS011;34587;48.816;9.420;2023-08-07T09:37:28;0.93;;;0.70;;
48791;SDS011;34587;48.816;9.420;2023-08-07T09:39:54;0.73;;;0.73;;
48791;SDS011;34587;48.816;9.420;2023-08-07T09:42:19;1.17;;;0.57;;
48791;SDS011;34587;48.816;9.420;2023-08-07T09:44:44;1.17;;;0.80;;
48791;SDS011;34587;48.816;9.420;2023-08-07T09:47:14;1.42;;;1.17;;
48791;SDS011;34587;48.816;9.420;2023-08-07T09:49:43;2.88;;;0.68;;
48791;SDS011;34587;48.816;9.420;2023-08-07T09:52:11;1.73;;;0.93;;
48791;SDS011;34587;48.816;9.420;2023-08-07T09:54:40;2.50;;;0.90;;
48791;SDS011;34587;48.816;9.420;2023-08-07T09:57:06;7.45;;;0.70;;
48791;SDS011;34587;48.816;9.420;2023-08-07T09:59:35;2.88;;;0.60;;
48791;SDS011;34587;48.816;9.420;2023-08-07T10:02:01;0.38;;;0.38;;
48791;SDS011;34587;48.816;9.420;2023-08-07T10:04:27;3.55;;;0.73;;
48791;SDS011;34587;48.816;9.420;2023-08-07T10:06:53;4.93;;;0.70;;
48791;SDS011;34587;48.816;9.420;2023-08-07T10:09:19;1.45;;;0.93;;
48791;SDS011;34587;48.816;9.420;2023-08-07T10:11:45;2.05;;;1.00;;
48791;SDS011;34587;48.816;9.420;2023-08-07T10:14:12;1.05;;;0.98;;
48791;SDS011;34587;48.816;9.420;2023-08-07T10:16:39;1.10;;;1.00;;
48791;SDS011;34587;48.816;9.420;2023-08-07T10:19:06;0.60;;;0.60;;
48791;SDS011;34587;48.816;9.420;2023-08-07T10:21:35;1.10;;;0.68;;
48791;SDS011;34587;48.816;9.420;2023-08-07T10:24:06;1.35;;;0.70;;
48791;SDS011;34587;48.816;9.420;2023-08-07T10:26:33;1.98;;;1.10;;
48791;SDS011;34587;48.816;9.420;2023-08-07T10:29:00;4.22;;;0.70;;
48791;SDS011;34587;48.816;9.420;2023-08-07T10:31:29;0.88;;;0.80;;
48791;SDS011;34587;48.816;9.420;2023-08-07T10:33:56;1.70;;;0.70;;
48791;SDS011;34587;48.816;9.420;2023-08-07T10:36:22;2.15;;;0.60;;
48791;SDS011;34587;48.816;9.420;2023-08-07T10:38:51;2.50;;;0.65;;
48791;SDS011;34587;48.816;9.420;2023-08-07T10:41:37;1.63;;;0.88;;
48791;SDS011;34587;48.816;9.420;2023-08-07T10:44:03;0.60;;;0.60;;
48791;SDS011;34587;48.816;9.420;2023-08-07T10:46:28;0.70;;;0.70;;
48791;SDS011;34587;48.816;9.420;2023-08-07T10:49:11;1.85;;;0.88;;
48791;SDS011;34587;48.816;9.420;2023-08-07T10:54:49;3.92;;;1.40;;
48791;SDS011;34587;48.816;9.420;2023-08-07T10:57:16;5.30;;;0.80;;
48791;SDS011;34587;48.816;9.420;2023-08-07T11:02:28;0.75;;;0.40;;
48791;SDS011;34587;48.816;9.420;2023-08-07T11:04:54;0.52;;;0.52;;
48791;SDS011;34587;48.816;9.420;2023-08-07T11:07:24;2.13;;;0.88;;
48791;SDS011;34587;48.816;9.420;2023-08-07T11:09:53;0.80;;;0.60;;
48791;SDS011;34587;48.816;9.420;2023-08-07T11:12:19;1.08;;;0.70;;
48791;SDS011;34587;48.816;9.420;2023-08-07T11:14:45;1.33;;;0.80;;
48791;SDS011;34587;48.816;9.420;2023-08-07T11:17:10;1.38;;;1.02;;
48791;SDS011;34587;48.816;9.420;2023-08-07T11:19:36;3.33;;;1.15;;
48791;SDS011;34587;48.816;9.420;2023-08-07T11:22:01;1.02;;;0.80;;
48791;SDS011;34587;48.816;9.420;2023-08-07T11:24:27;6.10;;;1.25;;
48791;SDS011;34587;48.816;9.420;2023-08-07T11:26:53;1.10;;;0.65;;
48791;SDS011;34587;48.816;9.420;2023-08-07T11:29:21;2.08;;;0.93;;
48791;SDS011;34587;48.816;9.420;2023-08-07T11:31:47;1.33;;;0.93;;
48791;SDS011;34587;48.816;9.420;2023-08-07T11:34:13;1.13;;;0.82;;
48791;SDS011;34587;48.816;9.420;2023-08-07T11:36:42;1.00;;;0.90;;
48791;SDS011;34587;48.816;9.420;2023-08-07T11:39:08;0.60;;;0.60;;
48791;SDS011;34587;48.816;9.420;2023-08-07T11:41:33;3.25;;;0.98;;
48791;SDS011;34587;48.816;9.420;2023-08-07T11:43:58;0.95;;;0.80;;
48791;SDS011;34587;48.816;9.420;2023-08-07T11:46:24;4.55;;;0.90;;
48791;SDS011;34587;48.816;9.420;2023-08-07T11:48:50;4.57;;;1.15;;
48791;SDS011;34587;48.816;9.420;2023-08-07T11:51:17;2.92;;;1.00;;
48791;SDS011;34587;48.816;9.420;2023-08-07T11:53:44;1.10;;;0.82;;
48791;SDS011;34587;48.816;9.420;2023-08-07T11:56:11;0.88;;;0.80;;
48791;SDS011;34587;48.816;9.420;2023-08-07T11:58:45;2.35;;;0.90;;
48791;SDS011;34587;48.816;9.420;2023-08-07T12:01:16;0.95;;;0.90;;
48791;SDS011;34587;48.816;9.420;2023-08-07T12:03:56;1.65;;;1.02;;
48791;SDS011;34587;48.816;9.420;2023-08-07T12:06:35;1.02;;;0.80;;
48791;SDS011;34587;48.816;9.420;2023-08-07T12:09:02;0.90;;;0.90;;
48791;SDS011;34587;48.816;9.420;2023-08-07T12:11:30;0.88;;;0.82;;
48791;SDS011;34587;48.816;9.420;2023-08-07T12:13:56;1.85;;;1.30;;
48791;SDS011;34587;48.816;9.420;2023-08-07T12:16:24;1.25;;;1.05;;
48791;SDS011;34587;48.816;9.420;2023-08-07T12:18:50;2.22;;;1.30;;
48791;SDS011;34587;48.816;9.420;2023-08-07T12:21:20;1.15;;;0.88;;
48791;SDS011;34587;48.816;9.420;2023-08-07T12:23:50;1.10;;;0.80;;
48791;SDS011;34587;48.816;9.420;2023-08-07T12:26:17;1.23;;;0.90;;
48791;SDS011;34587;48.816;9.420;2023-08-07T12:28:43;4.75;;;1.30;;
48791;SDS011;34587;48.816;9.420;2023-08-07T12:31:08;2.35;;;1.08;;
48791;SDS011;34587;48.816;9.420;2023-08-07T12:33:34;0.90;;;0.82;;
48791;SDS011;34587;48.816;9.420;2023-08-07T12:35:59;1.45;;;1.00;;
48791;SDS011;34587;48.816;9.420;2023-08-07T12:38:26;1.13;;;0.77;;
48791;SDS011;34587;48.816;9.420;2023-08-07T12:40:52;0.80;;;0.80;;
48791;SDS011;34587;48.816;9.420;2023-08-07T12:43:18;0.80;;;0.80;;
48791;SDS011;34587;48.816;9.420;2023-08-07T12:45:43;2.17;;;0.80;;
48791;SDS011;34587;48.816;9.420;2023-08-07T12:48:09;2.60;;;0.80;;
48791;SDS011;34587;48.816;9.420;2023-08-07T12:50:34;1.55;;;0.90;;
48791;SDS011;34587;48.816;9.420;2023-08-07T12:53:00;0.90;;;0.85;;
48791;SDS011;34587;48.816;9.420;2023-08-07T12:55:26;3.40;;;1.10;;
48791;SDS011;34587;48.816;9.420;2023-08-07T12:57:53;2.25;;;0.80;;
48791;SDS011;34587;48.816;9.420;2023-08-07T13:00:18;6.13;;;1.75;;
48791;SDS011;34587;48.816;9.420;2023-08-07T13:02:45;1.65;;;0.75;;
48791;SDS011;34587;48.816;9.420;2023-08-07T13:05:12;7.57;;;1.08;;
48791;SDS011;34587;48.816;9.420;2023-08-07T13:07:39;1.02;;;0.93;;
48791;SDS011;34587;48.816;9.420;2023-08-07T13:10:05;0.75;;;0.75;;
48791;SDS011;34587;48.816;9.420;2023-08-07T13:12:35;1.10;;;0.98;;
48791;SDS011;34587;48.816;9.420;2023-08-07T13:15:02;2.15;;;0.80;;
48791;SDS011;34587;48.816;9.420;2023-08-07T13:17:31;2.25;;;0.80;;
48791;SDS011;34587;48.816;9.420;2023-08-07T13:19:57;2.70;;;1.38;;
48791;SDS011;34587;48.816;9.420;2023-08-07T13:22:24;0.98;;;0.95;;
48791;SDS011;34587;48.816;9.420;2023-08-07T13:24:49;2.20;;;1.42;;
48791;SDS011;34587;48.816;9.420;2023-08-07T13:27:15;3.33;;;1.00;;
48791;SDS011;34587;48.816;9.420;2023-08-07T13:29:40;3.40;;;1.00;;
48791;SDS011;34587;48.816;9.420;2023-08-07T13:32:05;2.20;;;0.93;;
48791;SDS011;34587;48.816;9.420;2023-08-07T13:34:35;2.90;;;1.60;;
48791;SDS011;34587;48.816;9.420;2023-08-07T13:37:01;1.65;;;1.13;;
48791;SDS011;34587;48.816;9.420;2023-08-07T13:39:26;2.20;;;1.13;;
48791;SDS011;34587;48.816;9.420;2023-08-07T13:41:52;3.63;;;1.15;;
48791;SDS011;34587;48.816;9.420;2023-08-07T13:44:18;0.98;;;0.98;;
48791;SDS011;34587;48.816;9.420;2023-08-07T13:46:43;1.15;;;0.98;;
48791;SDS011;34587;48.816;9.420;2023-08-07T13:49:10;2.70;;;1.20;;
48791;SDS011;34587;48.816;9.420;2023-08-07T13:51:35;1.13;;;0.90;;
48791;SDS011;34587;48.816;9.420;2023-08-07T13:54:00;2.00;;;1.05;;
48791;SDS011;34587;48.816;9.420;2023-08-07T13:56:25;1.30;;;1.02;;
48791;SDS011;34587;48.816;9.420;2023-08-07T13:58:51;8.73;;;1.00;;
48791;SDS011;34587;48.816;9.420;2023-08-07T14:01:16;2.90;;;0.98;;
48791;SDS011;34587;48.816;9.420;2023-08-07T14:03:41;7.53;;;1.00;;
48791;SDS011;34587;48.816;9.420;2023-08-07T14:06:07;4.18;;;1.10;;
48791;SDS011;34587;48.816;9.420;2023-08-07T14:08:32;1.80;;;0.95;;
48791;SDS011;34587;48.816;9.420;2023-08-07T14:10:59;4.00;;;0.80;;
48791;SDS011;34587;48.816;9.420;2023-08-07T14:13:24;1.88;;;0.88;;
48791;SDS011;34587;48.816;9.420;2023-08-07T14:15:50;0.95;;;0.63;;
48791;SDS011;34587;48.816;9.420;2023-08-07T14:18:15;2.00;;;0.90;;
48791;SDS011;34587;48.816;9.420;2023-08-07T14:20:40;0.88;;;0.75;;
48791;SDS011;34587;48.816;9.420;2023-08-07T14:23:06;1.45;;;0.93;;
48791;SDS011;34587;48.816;9.420;2023-08-07T14:25:31;1.00;;;0.90;;
48791;SDS011;34587;48.816;9.420;2023-08-07T14:27:56;1.92;;;0.95;;
48791;SDS011;34587;48.816;9.420;2023-08-07T14:30:22;1.42;;;1.17;;
48791;SDS011;34587;48.816;9.420;2023-08-07T14:32:47;1.25;;;0.90;;
48791;SDS011;34587;48.816;9.420;2023-08-07T14:35:13;1.00;;;0.77;;
48791;SDS011;34587;48.816;9.420;2023-08-07T14:37:41;3.70;;;1.02;;
48791;SDS011;34587;48.816;9.420;2023-08-07T14:40:07;2.53;;;1.23;;
48791;SDS011;34587;48.816;9.420;2023-08-07T14:42:32;1.33;;;0.90;;
48791;SDS011;34587;48.816;9.420;2023-08-07T14:44:58;2.42;;;1.02;;
48791;SDS011;34587;48.816;9.420;2023-08-07T14:47:23;1.70;;;1.40;;
48791;SDS011;34587;48.816;9.420;2023-08-07T14:49:49;2.35;;;1.10;;
48791;SDS011;34587;48.816;9.420;2023-08-07T14:52:15;3.50;;;1.27;;
48791;SDS011;34587;48.816;9.420;2023-08-07T14:54:40;3.13;;;2.15;;
48791;SDS011;34587;48.816;9.420;2023-08-07T14:57:06;1.83;;;1.08;;
48791;SDS011;34587;48.816;9.420;2023-08-07T14:59:31;1.83;;;1.23;;
48791;SDS011;34587;48.816;9.420;2023-08-07T15:01:56;1.13;;;1.00;;
48791;SDS011;34587;48.816;9.420;2023-08-07T15:04:21;1.17;;;1.00;;
48791;SDS011;34587;48.816;9.420;2023-08-07T15:06:47;2.28;;;0.63;;
48791;SDS011;34587;48.816;9.420;2023-08-07T15:09:13;1.15;;;1.05;;
48791;SDS011;34587;48.816;9.420;2023-08-07T15:11:39;6.07;;;1.13;;
48791;SDS011;34587;48.816;9.420;2023-08-07T15:14:04;3.75;;;0.88;;
48791;SDS011;34587;48.816;9.420;2023-08-07T15:16:30;1.42;;;0.93;;
48791;SDS011;34587;48.816;9.420;2023-08-07T15:18:56;2.42;;;1.33;;
48791;SDS011;34587;48.816;9.420;2023-08-07T15:21:21;1.70;;;1.00;;
48791;SDS011;34587;48.816;9.420;2023-08-07T15:23:47;5.53;;;1.67;;
48791;SDS011;34587;48.816;9.420;2023-08-07T15:26:12;1.63;;;1.15;;
48791;SDS011;34587;48.816;9.420;2023-08-07T15:28:37;3.50;;;1.20;;
48791;SDS011;34587;48.816;9.420;2023-08-07T15:31:02;6.85;;;2.03;;
48791;SDS011;34587;48.816;9.420;2023-08-07T15:33:28;2.00;;;1.23;;
48791;SDS011;34587;48.816;9.420;2023-08-07T15:35:53;0.90;;;0.88;;
48791;SDS011;34587;48.816;9.420;2023-08-07T15:38:19;1.33;;;1.00;;
48791;SDS011;34587;48.816;9.420;2023-08-07T15:40:44;5.97;;;1.02;;
48791;SDS011;34587;48.816;9.420;2023-08-07T15:43:11;1.92;;;1.20;;
48791;SDS011;34587;48.816;9.420;2023-08-07T15:45:37;1.20;;;1.02;;
48791;SDS011;34587;48.816;9.420;2023-08-07T15:48:02;2.90;;;1.10;;
48791;SDS011;34587;48.816;9.420;2023-08-07T15:50:28;1.00;;;0.90;;
48791;SDS011;34587;48.816;9.420;2023-08-07T15:52:55;5.22;;;1.25;;
48791;SDS011;34587;48.816;9.420;2023-08-07T15:55:21;1.73;;;1.33;;
48791;SDS011;34587;48.816;9.420;2023-08-07T15:57:47;1.70;;;1.20;;
48791;SDS011;34587;48.816;9.420;2023-08-07T16:00:12;1.48;;;0.98;;
48791;SDS011;34587;48.816;9.420;2023-08-07T16:02:38;3.13;;;1.30;;
48791;SDS011;34587;48.816;9.420;2023-08-07T16:05:04;2.17;;;1.02;;
48791;SDS011;34587;48.816;9.420;2023-08-07T16:07:30;1.20;;;0.90;;
48791;SDS011;34587;48.816;9.420;2023-08-07T16:09:55;0.85;;;0.75;;
48791;SDS011;34587;48.816;9.420;2023-08-07T16:12:21;1.13;;;1.02;;
48791;SDS011;34587;48.816;9.420;2023-08-07T16:14:46;0.77;;;0.75;;
48791;SDS011;34587;48.816;9.420;2023-08-07T16:17:13;2.47;;;1.38;;
48791;SDS011;34587;48.816;9.420;2023-08-07T16:19:39;2.33;;;1.30;;
48791;SDS011;34587;48.816;9.420;2023-08-07T16:22:05;1.02;;;0.95;;
48791;SDS011;34587;48.816;9.420;2023-08-07T16:24:30;1.33;;;1.00;;
48791;SDS011;34587;48.816;9.420;2023-08-07T16:26:57;6.85;;;1.33;;
48791;SDS011;34587;48.816;9.420;2023-08-07T16:29:22;1.95;;;0.98;;
48791;SDS011;34587;48.816;9.420;2023-08-07T16:31:47;2.20;;;1.05;;
48791;SDS011;34587;48.816;9.420;2023-08-07T16:34:13;1.95;;;1.00;;
48791;SDS011;34587;48.816;9.420;2023-08-07T16:36:38;1.90;;;1.00;;
48791;SDS011;34587;48.816;9.420;2023-08-07T16:39:03;2.50;;;1.10;;
48791;SDS011;34587;48.816;9.420;2023-08-07T16:41:29;2.47;;;0.98;;
48791;SDS011;34587;48.816;9.420;2023-08-07T16:43:54;3.03;;;1.15;;
48791;SDS011;34587;48.816;9.420;2023-08-07T16:46:19;0.90;;;0.90;;
48791;SDS011;34587;48.816;9.420;2023-08-07T16:48:45;1.73;;;1.00;;
48791;SDS011;34587;48.816;9.420;2023-08-07T16:51:11;4.45;;;0.98;;
48791;SDS011;34587;48.816;9.420;2023-08-07T16:53:37;1.10;;;1.00;;
48791;SDS011;34587;48.816;9.420;2023-08-07T16:56:03;3.95;;;0.95;;
48791;SDS011;34587;48.816;9.420;2023-08-07T16:58:28;1.63;;;1.02;;
48791;SDS011;34587;48.816;9.420;2023-08-07T17:00:54;4.45;;;0.88;;
48791;SDS011;34587;48.816;9.420;2023-08-07T17:03:19;2.53;;;1.00;;
48791;SDS011;34587;48.816;9.420;2023-08-07T17:05:44;1.50;;;1.40;;
48791;SDS011;34587;48.816;9.420;2023-08-07T17:08:09;2.08;;;1.50;;
48791;SDS011;34587;48.816;9.420;2023-08-07T17:10:35;5.45;;;1.20;;
48791;SDS011;34587;48.816;9.420;2023-08-07T17:13:00;0.93;;;0.75;;
48791;SDS011;34587;48.816;9.420;2023-08-07T17:15:25;3.22;;;1.10;;
48791;SDS011;34587;48.816;9.420;2023-08-07T17:17:51;3.58;;;2.45;;
48791;SDS011;34587;48.816;9.420;2023-08-07T17:20:16;1.92;;;1.27;;
48791;SDS011;34587;48.816;9.420;2023-08-07T17:22:41;1.42;;;1.08;;
48791;SDS011;34587;48.816;9.420;2023-08-07T17:25:07;2.55;;;1.13;;
48791;SDS011;34587;48.816;9.420;2023-08-07T17:27:32;3.58;;;0.88;;
48791;SDS011;34587;48.816;9.420;2023-08-07T17:29:58;1.13;;;0.80;;
48791;SDS011;34587;48.816;9.420;2023-08-07T17:32:23;0.80;;;0.80;;
48791;SDS011;34587;48.816;9.420;2023-08-07T17:34:49;1.00;;;0.90;;
48791;SDS011;34587;48.816;9.420;2023-08-07T17:37:15;2.92;;;0.73;;
48791;SDS011;34587;48.816;9.420;2023-08-07T17:39:40;0.88;;;0.85;;
48791;SDS011;34587;48.816;9.420;2023-08-07T17:42:05;0.95;;;0.85;;
48791;SDS011;34587;48.816;9.420;2023-08-07T17:44:32;3.15;;;1.02;;
48791;SDS011;34587;48.816;9.420;2023-08-07T17:46:57;1.70;;;0.90;;
48791;SDS011;34587;48.816;9.420;2023-08-07T17:49:22;2.08;;;0.90;;
48791;SDS011;34587;48.816;9.420;2023-08-07T17:51:48;1.00;;;0.93;;
48791;SDS011;34587;48.816;9.420;2023-08-07T17:54:13;3.92;;;1.52;;
48791;SDS011;34587;48.816;9.420;2023-08-07T17:56:38;0.93;;;0.80;;
48791;SDS011;34587;48.816;9.420;2023-08-07T17:59:03;1.45;;;1.20;;
48791;SDS011;34587;48.816;9.420;2023-08-07T18:01:30;5.00;;;1.20;;
48791;SDS011;34587;48.816;9.420;2023-08-07T18:03:56;1.80;;;1.00;;
48791;SDS011;34587;48.816;9.420;2023-08-07T18:06:25;1.35;;;0.93;;
48791;SDS011;34587;48.816;9.420;2023-08-07T18:08:51;0.70;;;0.70;;
48791;SDS011;34587;48.816;9.420;2023-08-07T18:11:16;1.55;;;0.93;;
48791;SDS011;34587;48.816;9.420;2023-08-07T18:13:42;1.88;;;0.75;;
48791;SDS011;34587;48.816;9.420;2023-08-07T18:16:07;1.80;;;0.98;;
48791;SDS011;34587;48.816;9.420;2023-08-07T18:18:32;1.50;;;0.98;;
48791;SDS011;34587;48.816;9.420;2023-08-07T18:20:58;3.25;;;1.10;;
48791;SDS011;34587;48.816;9.420;2023-08-07T18:23:23;1.75;;;0.90;;
48791;SDS011;34587;48.816;9.420;2023-08-07T18:25:48;1.45;;;1.13;;
48791;SDS011;34587;48.816;9.420;2023-08-07T18:28:13;1.73;;;1.30;;
48791;SDS011;34587;48.816;9.420;2023-08-07T18:30:39;1.15;;;1.00;;
48791;SDS011;34587;48.816;9.420;2023-08-07T18:33:04;1.75;;;1.10;;
48791;SDS011;34587;48.816;9.420;2023-08-07T18:35:29;1.23;;;0.93;;
48791;SDS011;34587;48.816;9.420;2023-08-07T18:37:55;0.85;;;0.80;;
48791;SDS011;34587;48.816;9.420;2023-08-07T18:40:20;1.58;;;1.02;;
48791;SDS011;34587;48.816;9.420;2023-08-07T18:42:45;3.30;;;1.05;;
48791;SDS011;34587;48.816;9.420;2023-08-07T18:45:11;2.33;;;0.85;;
48791;SDS011;34587;48.816;9.420;2023-08-07T18:47:36;1.30;;;1.20;;
48791;SDS011;34587;48.816;9.420;2023-08-07T18:50:01;2.30;;;1.77;;
48791;SDS011;34587;48.816;9.420;2023-08-07T18:52:26;5.80;;;2.90;;
48791;SDS011;34587;48.816;9.420;2023-08-07T18:54:52;7.15;;;3.50;;
48791;SDS011;34587;48.816;9.420;2023-08-07T18:57:18;20.67;;;8.80;;
48791;SDS011;34587;48.816;9.420;2023-08-07T18:59:43;9.88;;;5.30;;
48791;SDS011;34587;48.816;9.420;2023-08-07T19:02:08;2.90;;;2.08;;